createdAt,value
2018-09-28T00:01:57.752Z,93.40
2018-09-28T00:04:39.246Z,93.30
2018-09-28T00:07:20.206Z,93.40
2018-09-28T00:10:01.874Z,93.40
2018-09-28T00:12:44.068Z,93.60
2018-09-28T00:15:26.700Z,93.70
2018-09-28T00:18:08.836Z,93.60
2018-09-28T00:20:50.175Z,93.70
2018-09-28T00:23:31.761Z,93.70
2018-09-28T00:26:13.375Z,93.70
2018-09-28T00:28:54.961Z,93.70
2018-09-28T00:31:36.944Z,93.80
2018-09-28T00:34:18.221Z,93.70
2018-09-28T00:37:00.013Z,93.80
2018-09-28T00:39:41.629Z,93.90
2018-09-28T00:42:23.293Z,93.80
2018-09-28T00:45:04.984Z,94.30
2018-09-28T00:47:47.007Z,94.00
2018-09-28T00:50:28.079Z,94.10
2018-09-28T00:53:09.851Z,94.00
2018-09-28T00:55:51.439Z,94.00
2018-09-28T00:58:32.967Z,94.10
2018-09-28T01:01:13.927Z,94.10
2018-09-28T01:03:55.796Z,94.20
2018-09-28T01:06:37.793Z,94.00
2018-09-28T01:09:19.995Z,93.80
2018-09-28T01:12:01.281Z,93.70
2018-09-28T01:14:42.686Z,93.70
2018-09-28T01:17:25.383Z,93.70
2018-09-28T01:20:06.966Z,93.60
2018-09-28T01:22:48.373Z,93.60
2018-09-28T01:25:29.962Z,93.60
2018-09-28T01:28:11.446Z,93.60
2018-09-28T01:30:53.220Z,93.60
2018-09-28T01:33:34.617Z,93.60
2018-09-28T01:36:16.394Z,93.70
2018-09-28T01:38:57.584Z,93.80
2018-09-28T01:41:39.391Z,93.80
2018-09-28T01:44:21.567Z,93.90
2018-09-28T01:47:02.803Z,93.80
2018-09-28T01:49:44.776Z,93.80
2018-09-28T01:52:25.635Z,93.70
2018-09-28T01:55:07.204Z,93.60
2018-09-28T01:57:49.000Z,93.60
2018-09-28T02:00:30.279Z,93.60
2018-09-28T02:03:12.189Z,93.50
2018-09-28T02:05:53.764Z,93.40
2018-09-28T02:08:35.487Z,93.30
2018-09-28T02:11:17.144Z,93.50
2018-09-28T02:13:58.426Z,93.20
2018-09-28T02:16:40.253Z,93.30
2018-09-28T02:19:21.231Z,93.40
2018-09-28T02:22:02.990Z,93.30
2018-09-28T02:24:44.478Z,92.90
2018-09-28T02:27:26.169Z,93.20
2018-09-28T02:30:07.755Z,93.20
2018-09-28T02:32:49.782Z,93.10
2018-09-28T02:35:31.035Z,93.10
2018-09-28T02:38:12.544Z,93.10
2018-09-28T02:40:54.234Z,92.90
2018-09-28T02:43:36.956Z,92.50
2018-09-28T02:46:18.326Z,92.40
2018-09-28T02:49:00.354Z,92.50
2018-09-28T02:51:41.486Z,92.60
2018-09-28T02:54:23.409Z,92.40
2018-09-28T02:57:04.796Z,92.50
2018-09-28T02:59:46.719Z,92.50
2018-09-28T03:02:28.659Z,92.60
2018-09-28T03:05:09.840Z,92.60
2018-09-28T03:07:52.055Z,92.70
2018-09-28T03:10:33.116Z,92.70
2018-09-28T03:13:14.622Z,92.60
2018-09-28T03:15:56.491Z,92.30
2018-09-28T03:18:38.086Z,92.20
2018-09-28T03:21:19.706Z,91.90
2018-09-28T03:24:02.419Z,91.90
2018-09-28T03:26:44.082Z,91.90
2018-09-28T03:29:25.674Z,91.90
2018-09-28T03:32:07.975Z,91.90
2018-09-28T03:34:48.949Z,92.40
2018-09-28T03:37:30.539Z,92.10
2018-09-28T03:40:12.027Z,92.10
2018-09-28T03:42:53.541Z,92.20
2018-09-28T03:45:35.027Z,92.50
2018-09-28T03:48:16.440Z,92.30
2018-09-28T03:50:57.968Z,92.40
2018-09-28T03:53:40.044Z,92.40
2018-09-28T03:56:21.276Z,92.30
2018-09-28T03:59:03.144Z,92.60
2018-09-28T04:01:44.659Z,92.50
2018-09-28T04:04:26.257Z,92.50
2018-09-28T04:07:08.275Z,92.60
2018-09-28T04:09:49.711Z,92.80
2018-09-28T04:12:31.109Z,92.70
2018-09-28T04:15:12.552Z,92.70
2018-09-28T04:17:54.267Z,92.60
2018-09-28T04:20:35.872Z,92.80
2018-09-28T04:23:17.362Z,92.80
2018-09-28T04:25:59.152Z,92.90
2018-09-28T04:28:41.466Z,93.00
2018-09-28T04:31:22.438Z,92.70
2018-09-28T04:34:04.030Z,93.00
2018-09-28T04:36:46.029Z,93.00
2018-09-28T04:39:29.017Z,93.00
2018-09-28T04:42:10.636Z,93.10
2018-09-28T04:44:52.404Z,93.20
2018-09-28T04:47:34.009Z,93.30
2018-09-28T04:50:16.091Z,93.30
2018-09-28T04:52:57.581Z,93.30
2018-09-28T04:55:38.960Z,93.50
2018-09-28T04:58:20.344Z,93.50
2018-09-28T05:01:01.951Z,93.60
2018-09-28T05:03:44.144Z,93.60
2018-09-28T05:06:25.134Z,93.70
2018-09-28T05:09:07.226Z,93.70
2018-09-28T05:11:48.313Z,93.70
2018-09-28T05:14:29.671Z,93.90
2018-09-28T05:17:11.171Z,93.90
2018-09-28T05:19:53.686Z,93.90
2018-09-28T05:22:34.748Z,94.40
2018-09-28T05:25:16.302Z,94.20
2018-09-28T05:27:58.148Z,94.20
2018-09-28T05:30:44.974Z,94.70
2018-09-28T05:33:21.404Z,94.30
2018-09-28T05:36:02.992Z,94.40
2018-09-28T05:38:45.077Z,94.30
2018-09-28T05:41:26.504Z,94.40
2018-09-28T05:44:08.106Z,94.40
2018-09-28T05:46:49.661Z,94.40
2018-09-28T05:49:31.366Z,94.50
2018-09-28T05:52:13.244Z,94.60
2018-09-28T05:54:54.939Z,94.60
2018-09-28T05:57:36.952Z,94.40
2018-09-28T06:00:23.126Z,94.70
2018-09-28T06:03:06.276Z,94.80
2018-09-28T06:05:52.638Z,94.70
2018-09-28T06:08:34.371Z,94.70
2018-09-28T06:11:15.858Z,94.70
2018-09-28T06:13:57.445Z,94.70
2018-09-28T06:16:38.661Z,94.70
2018-09-28T06:19:19.879Z,94.70
2018-09-28T06:22:01.892Z,94.60
2018-09-28T06:24:43.761Z,94.50
2018-09-28T06:27:25.279Z,94.40
2018-09-28T06:30:07.289Z,94.30
2018-09-28T06:32:48.875Z,94.50
2018-09-28T06:35:29.664Z,94.10
2018-09-28T06:38:11.317Z,93.90
2018-09-28T06:40:53.324Z,93.80
2018-09-28T06:43:35.174Z,93.80
2018-09-28T06:46:16.180Z,93.50
2018-09-28T06:48:57.802Z,93.60
2018-09-28T06:51:39.371Z,93.50
2018-09-28T06:54:21.222Z,93.40
2018-09-28T06:57:02.942Z,93.30
2018-09-28T06:59:44.380Z,93.30
2018-09-28T07:02:26.318Z,93.20
2018-09-28T07:05:07.932Z,93.30
2018-09-28T07:07:49.395Z,92.90
2018-09-28T07:10:31.213Z,92.90
2018-09-28T07:13:13.685Z,93.00
2018-09-28T07:15:55.508Z,92.70
2018-09-28T07:18:37.199Z,92.50
2018-09-28T07:21:18.869Z,92.10
2018-09-28T07:24:00.725Z,92.30
2018-09-28T07:26:41.969Z,92.20
2018-09-28T07:29:23.662Z,92.10
2018-09-28T07:32:05.927Z,92.00
2018-09-28T07:34:47.654Z,92.30
2018-09-28T07:37:28.618Z,91.90
2018-09-28T07:40:11.120Z,92.00
2018-09-28T07:42:52.838Z,91.60
2018-09-28T07:45:34.824Z,91.70
2018-09-28T07:48:16.438Z,90.40
2018-09-28T07:50:57.909Z,90.10
2018-09-28T07:53:39.947Z,90.30
2018-09-28T07:56:21.075Z,90.20
2018-09-28T07:59:02.583Z,89.30
2018-09-28T08:01:44.360Z,90.40
2018-09-28T08:04:25.944Z,90.20
2018-09-28T08:07:07.442Z,90.40
2018-09-28T08:09:49.308Z,90.60
2018-09-28T08:12:31.903Z,90.10
2018-09-28T08:15:12.998Z,89.60
2018-09-28T08:17:54.578Z,88.30
2018-09-28T08:20:35.860Z,86.40
2018-09-28T08:23:17.709Z,81.90
2018-09-28T08:25:59.168Z,78.20
2018-09-28T08:28:40.839Z,74.90
2018-09-28T08:31:22.547Z,71.70
2018-09-28T08:34:04.138Z,69.30
2018-09-28T08:36:45.614Z,67.50
2018-09-28T08:39:27.842Z,63.10
2018-09-28T08:42:08.918Z,61.30
2018-09-28T08:44:50.493Z,59.80
2018-09-28T08:47:32.367Z,57.20
2018-09-28T08:50:13.563Z,55.50
2018-09-28T08:52:55.175Z,53.50
2018-09-28T08:55:36.747Z,53.50
2018-09-28T08:58:18.415Z,52.90
2018-09-28T09:00:59.918Z,51.40
2018-09-28T09:03:41.592Z,50.30
2018-09-28T09:06:23.387Z,49.70
2018-09-28T09:09:06.015Z,49.90
2018-09-28T09:11:47.417Z,48.90
2018-09-28T09:14:29.573Z,50.00
2018-09-28T09:17:10.762Z,50.20
2018-09-28T09:19:52.350Z,50.80
2018-09-28T09:22:33.935Z,51.40
2018-09-28T09:25:15.631Z,50.40
2018-09-28T09:27:57.249Z,51.90
2018-09-28T09:30:39.317Z,52.60
2018-09-28T09:33:20.291Z,52.30
2018-09-28T09:36:01.779Z,50.60
2018-09-28T09:38:43.264Z,50.70
2018-09-28T09:41:25.056Z,52.30
2018-09-28T09:44:06.684Z,51.10
2018-09-28T09:46:48.664Z,52.40
2018-09-28T09:49:30.688Z,53.70
2018-09-28T09:52:11.926Z,56.10
2018-09-28T09:58:01.220Z,58.90
2018-09-28T10:00:47.747Z,61.70
2018-09-28T10:03:34.325Z,63.20
2018-09-28T10:06:16.018Z,65.10
2018-09-28T10:08:57.710Z,65.50
2018-09-28T10:11:39.419Z,66.60
2018-09-28T10:14:21.006Z,68.10
2018-09-28T10:17:02.678Z,69.20
2018-09-28T10:19:44.474Z,69.50
2018-09-28T10:22:26.511Z,70.00
2018-09-28T10:25:07.442Z,69.30
2018-09-28T10:27:48.905Z,71.60
2018-09-28T10:30:30.697Z,71.90
2018-09-28T10:33:12.105Z,72.80
2018-09-28T10:35:53.659Z,71.90
2018-09-28T10:38:35.833Z,71.80
2018-09-28T10:41:16.974Z,72.50
2018-09-28T10:43:58.872Z,72.40
2018-09-28T10:46:40.480Z,72.60
2018-09-28T10:49:22.052Z,73.90
2018-09-28T10:52:03.842Z,73.10
2018-09-28T10:54:45.434Z,73.30
2018-09-28T10:57:27.946Z,73.20
2018-09-28T11:00:08.912Z,73.50
2018-09-28T11:02:51.282Z,74.30
2018-09-28T11:05:32.424Z,73.40
2018-09-28T11:08:14.567Z,73.80
2018-09-28T11:10:56.004Z,73.40
2018-09-28T11:13:38.340Z,74.40
2018-09-28T11:16:19.489Z,74.80
2018-09-28T11:19:01.251Z,74.80
2018-09-28T11:21:42.302Z,75.10
2018-09-28T11:24:23.951Z,74.90
2018-09-28T11:27:06.350Z,76.20
2018-09-28T11:29:47.636Z,77.30
2018-09-28T11:32:29.426Z,77.90
2018-09-28T11:35:11.537Z,77.80
2018-09-28T11:37:52.733Z,78.00
2018-09-28T11:40:33.989Z,77.90
2018-09-28T11:43:15.800Z,78.00
2018-09-28T11:45:57.775Z,77.30
2018-09-28T11:48:39.060Z,76.10
2018-09-28T11:51:20.748Z,77.90
2018-09-28T11:54:02.232Z,77.90
2018-09-28T11:56:43.927Z,79.60
2018-09-28T11:59:25.620Z,78.90
2018-09-28T12:02:07.671Z,78.70
2018-09-28T12:04:48.505Z,79.70
2018-09-28T12:07:30.264Z,78.60
2018-09-28T12:10:12.210Z,78.10
2018-09-28T12:12:53.663Z,77.90
2018-09-28T12:15:35.619Z,77.90
2018-09-28T12:18:17.206Z,77.20
2018-09-28T12:20:58.851Z,78.00
2018-09-28T12:23:40.432Z,78.10
2018-09-28T12:26:22.103Z,77.30
2018-09-28T12:29:03.177Z,76.20
2018-09-28T12:31:44.765Z,76.40
2018-09-28T12:34:26.385Z,75.70
2018-09-28T12:37:08.074Z,75.40
2018-09-28T12:39:49.862Z,76.00
2018-09-28T12:42:32.220Z,76.10
2018-09-28T12:45:13.431Z,75.90
2018-09-28T12:47:55.056Z,75.70
2018-09-28T12:50:36.534Z,76.80
2018-09-28T12:53:17.910Z,76.70
2018-09-28T12:55:59.702Z,75.20
2018-09-28T12:58:41.175Z,77.20
2018-09-28T13:01:22.572Z,76.90
2018-09-28T13:04:04.136Z,77.70
2018-09-28T13:06:46.137Z,77.00
2018-09-28T13:09:27.212Z,76.90
2018-09-28T13:12:09.045Z,77.70
2018-09-28T13:14:50.550Z,78.30
2018-09-28T13:17:32.007Z,77.00
2018-09-28T13:20:14.316Z,75.70
2018-09-28T13:22:56.186Z,76.70
2018-09-28T13:25:37.385Z,76.70
2018-09-28T13:28:19.066Z,76.60
2018-09-28T13:31:00.770Z,77.60
2018-09-28T13:33:42.551Z,77.50
2018-09-28T13:36:23.856Z,77.00
2018-09-28T13:39:06.169Z,78.30
2018-09-28T13:41:47.092Z,77.90
2018-09-28T13:44:28.923Z,75.70
2018-09-28T13:47:10.021Z,77.00
2018-09-28T13:49:51.366Z,77.10
2018-09-28T13:52:32.336Z,75.90
2018-09-28T13:55:14.118Z,77.10
2018-09-28T13:57:56.429Z,77.10
2018-09-28T14:00:38.355Z,75.20
2018-09-28T14:03:19.394Z,76.00
2018-09-28T14:06:01.291Z,76.00
2018-09-28T14:08:42.442Z,76.00
2018-09-28T14:11:24.323Z,76.50
2018-09-28T14:14:06.360Z,77.90
2018-09-28T14:16:47.513Z,77.80
2018-09-28T14:19:30.150Z,78.50
2018-09-28T14:22:11.845Z,78.70
2018-09-28T14:24:54.239Z,78.30
2018-09-28T14:27:35.344Z,78.90
2018-09-28T14:30:17.099Z,79.10
2018-09-28T14:32:58.811Z,80.30
2018-09-28T14:35:40.635Z,80.40
2018-09-28T14:38:22.124Z,80.50
2018-09-28T14:41:02.878Z,80.20
2018-09-28T14:43:43.651Z,80.20
2018-09-28T14:46:25.331Z,80.60
2018-09-28T14:49:06.991Z,80.60
2018-09-28T14:51:48.396Z,80.50
2018-09-28T14:54:29.250Z,81.60
2018-09-28T14:57:10.859Z,82.50
2018-09-28T14:59:52.134Z,82.40
2018-09-28T15:02:33.796Z,82.20
2018-09-28T15:05:15.315Z,82.60
2018-09-28T15:07:57.331Z,82.40
2018-09-28T15:10:38.341Z,81.70
2018-09-28T15:13:19.974Z,81.30
2018-09-28T15:16:01.566Z,80.40
2018-09-28T15:18:43.111Z,81.50
2018-09-28T15:21:25.001Z,81.30
2018-09-28T15:24:06.505Z,79.30
2018-09-28T15:26:48.244Z,80.20
2018-09-28T15:29:29.722Z,76.70
2018-09-28T15:32:12.050Z,78.50
2018-09-28T15:34:52.816Z,76.20
2018-09-28T15:37:35.289Z,77.70
2018-09-28T15:40:16.786Z,78.50
2018-09-28T15:42:57.757Z,78.30
2018-09-28T15:45:39.343Z,77.30
2018-09-28T15:48:21.246Z,75.90
2018-09-28T15:51:03.256Z,69.40
2018-09-28T15:53:44.506Z,68.80
2018-09-28T15:56:25.437Z,65.70
2018-09-28T15:59:07.696Z,64.90
2018-09-28T16:01:48.875Z,63.50
2018-09-28T16:04:31.131Z,64.60
2018-09-28T16:07:12.290Z,63.30
2018-09-28T16:09:53.231Z,64.40
2018-09-28T16:12:35.050Z,65.80
2018-09-28T16:15:16.028Z,66.30
2018-09-28T16:17:57.824Z,67.00
2018-09-28T16:20:38.787Z,67.60
2018-09-28T16:23:20.308Z,67.50
2018-09-28T16:26:02.150Z,67.50
2018-09-28T16:28:44.149Z,68.50
2018-09-28T16:31:25.490Z,67.40
2018-09-28T16:34:07.279Z,67.20
2018-09-28T16:36:48.864Z,68.50
2018-09-28T16:39:30.110Z,67.20
2018-09-28T16:42:11.992Z,67.10
2018-09-28T16:44:53.296Z,68.70
2018-09-28T16:47:35.103Z,68.90
2018-09-28T16:50:16.876Z,69.10
2018-09-28T16:52:58.344Z,69.00
2018-09-28T16:55:40.567Z,69.20
2018-09-28T16:58:21.999Z,69.40
2018-09-28T17:01:03.620Z,69.80
2018-09-28T17:03:45.126Z,69.80
2018-09-28T17:06:26.922Z,70.20
2018-09-28T17:09:09.539Z,70.50
2018-09-28T17:11:51.406Z,70.70
2018-09-28T17:14:33.132Z,70.90
2018-09-28T17:17:14.992Z,70.90
2018-09-28T17:19:56.552Z,71.50
2018-09-28T17:22:38.399Z,72.30
2018-09-28T17:25:20.271Z,72.90
2018-09-28T17:28:02.064Z,74.10
2018-09-28T17:30:43.756Z,75.00
2018-09-28T17:33:25.675Z,75.70
2018-09-28T17:36:07.544Z,76.00
2018-09-28T17:38:50.079Z,76.60
2018-09-28T17:41:31.748Z,77.00
2018-09-28T17:44:13.232Z,77.20
2018-09-28T17:46:54.840Z,77.30
2018-09-28T17:49:36.614Z,77.70
2018-09-28T17:52:18.318Z,78.10
2018-09-28T17:54:59.893Z,77.90
2018-09-28T17:57:42.558Z,77.50
2018-09-28T18:00:24.303Z,77.60
2018-09-28T18:03:06.168Z,77.90
2018-09-28T18:05:48.600Z,77.90
2018-09-28T18:08:30.217Z,78.30
2018-09-28T18:11:11.107Z,78.10
2018-09-28T18:13:52.958Z,78.80
2018-09-28T18:16:35.391Z,79.30
2018-09-28T18:19:17.158Z,79.80
2018-09-28T18:21:59.304Z,80.00
2018-09-28T18:24:40.972Z,80.30
2018-09-28T18:27:22.024Z,80.20
2018-09-28T18:30:03.736Z,80.30
2018-09-28T18:32:44.794Z,80.20
2018-09-28T18:35:26.407Z,80.00
2018-09-28T18:38:08.096Z,80.10
2018-09-28T18:40:49.219Z,80.00
2018-09-28T18:43:30.978Z,79.70
2018-09-28T18:46:12.656Z,79.60
2018-09-28T18:48:54.138Z,78.90
2018-09-28T18:51:35.713Z,78.20
2018-09-28T18:54:17.302Z,77.80
2018-09-28T18:56:59.031Z,77.80
2018-09-28T18:59:40.780Z,77.30
2018-09-28T19:02:22.398Z,76.90
2018-09-28T19:05:04.180Z,76.80
2018-09-28T19:07:45.592Z,75.70
2018-09-28T19:10:26.418Z,75.20
2018-09-28T19:13:08.784Z,74.80
2018-09-28T19:15:49.622Z,74.80
2018-09-28T19:18:31.307Z,73.60
2018-09-28T19:21:13.014Z,73.00
2018-09-28T19:23:54.975Z,73.50
2018-09-28T19:26:36.655Z,74.30
2018-09-28T19:29:18.275Z,72.90
2018-09-28T19:32:00.895Z,72.60
2018-09-28T19:34:42.495Z,73.10
2018-09-28T19:37:23.459Z,72.20
2018-09-28T19:40:04.539Z,71.00
2018-09-28T19:42:46.492Z,71.00
2018-09-28T19:45:27.914Z,71.20
2018-09-28T19:48:09.746Z,70.60
2018-09-28T19:50:51.188Z,70.10
2018-09-28T19:53:32.862Z,69.80
2018-09-28T19:56:14.783Z,69.70
2018-09-28T19:58:56.546Z,69.30
2018-09-28T20:01:39.468Z,69.90
2018-09-28T20:04:20.769Z,69.70
2018-09-28T20:07:02.541Z,69.60
2018-09-28T20:09:44.156Z,70.00
2018-09-28T20:12:25.951Z,69.70
2018-09-28T20:15:08.437Z,68.90
2018-09-28T20:17:49.509Z,69.20
2018-09-28T20:20:31.101Z,69.20
2018-09-28T20:23:12.792Z,69.00
2018-09-28T20:25:54.479Z,68.90
2018-09-28T20:28:35.969Z,69.10
2018-09-28T20:31:17.758Z,69.30
2018-09-28T20:33:59.762Z,69.70
2018-09-28T20:36:43.600Z,69.30
2018-09-28T20:39:25.386Z,69.50
2018-09-28T20:42:06.980Z,70.10
2018-09-28T20:44:49.289Z,70.50
2018-09-28T20:47:31.180Z,69.50
2018-09-28T20:50:13.181Z,69.10
2018-09-28T20:52:54.360Z,69.20
2018-09-28T20:55:35.902Z,68.90
2018-09-28T20:58:17.353Z,68.40
2018-09-28T21:00:58.990Z,68.40
2018-09-28T21:03:40.510Z,68.60
2018-09-28T21:06:22.097Z,68.80
2018-09-28T21:09:03.708Z,68.70
2018-09-28T21:11:45.403Z,69.00
2018-09-28T21:14:27.068Z,69.60
2018-09-28T21:17:08.657Z,69.60
2018-09-28T21:19:50.382Z,69.70
2018-09-28T21:22:31.235Z,70.00
2018-09-28T21:25:13.038Z,70.20
2018-09-28T21:27:55.727Z,70.30
2018-09-28T21:30:37.555Z,70.50
2018-09-28T21:33:18.943Z,71.20
2018-09-28T21:36:00.620Z,71.70
2018-09-28T21:38:42.387Z,71.70
2018-09-28T21:41:24.637Z,72.40
2018-09-28T21:44:05.823Z,72.70
2018-09-28T21:46:47.258Z,72.30
2018-09-28T21:49:28.943Z,72.80
2018-09-28T21:52:10.533Z,72.90
2018-09-28T21:54:52.224Z,73.20
2018-09-28T21:57:34.352Z,73.60
2018-09-28T22:00:15.411Z,74.10
2018-09-28T22:02:56.858Z,74.60
2018-09-28T22:05:38.476Z,74.90
2018-09-28T22:08:19.988Z,74.90
2018-09-28T22:11:01.756Z,74.80
2018-09-28T22:13:43.301Z,74.90
2018-09-28T22:16:24.829Z,74.90
2018-09-28T22:19:07.033Z,74.80
2018-09-28T22:21:48.391Z,74.80
2018-09-28T22:24:29.599Z,75.90
2018-09-28T22:27:11.551Z,75.70
2018-09-28T22:29:53.182Z,75.30
2018-09-28T22:32:34.980Z,75.00
2018-09-28T22:35:17.417Z,74.70
2018-09-28T22:37:58.479Z,74.50
2018-09-28T22:40:40.172Z,74.20
2018-09-28T22:43:22.353Z,73.70
2018-09-28T22:46:03.430Z,73.50
2018-09-28T22:48:45.122Z,73.30
2018-09-28T22:51:26.629Z,73.00
2018-09-28T22:54:08.118Z,73.70
2018-09-28T22:56:49.995Z,73.50
2018-09-28T22:59:31.817Z,72.70
2018-09-28T23:02:13.573Z,72.30
2018-09-28T23:04:55.700Z,72.00
2018-09-28T23:07:37.012Z,72.00
2018-09-28T23:10:18.954Z,72.10
2018-09-28T23:13:00.134Z,72.30
2018-09-28T23:15:41.825Z,72.00
2018-09-28T23:18:23.598Z,72.00
2018-09-28T23:21:04.901Z,71.50
2018-09-28T23:23:46.848Z,71.40
2018-09-28T23:26:28.688Z,71.10
2018-09-28T23:29:10.492Z,70.70
2018-09-28T23:31:51.978Z,70.70
2018-09-28T23:34:33.578Z,70.20
2018-09-28T23:37:15.631Z,70.10
2018-09-28T23:39:56.972Z,69.80
2018-09-28T23:42:38.635Z,70.00
2018-09-28T23:45:20.324Z,69.40
2018-09-28T23:48:01.952Z,69.50
2018-09-28T23:50:43.602Z,68.40
2018-09-28T23:53:25.290Z,68.40
2018-09-28T23:56:07.104Z,68.20
2018-09-28T23:58:48.777Z,68.40
